Time;durP1;ratioP1;P1;durP2;ratioP2;P2;SDS_P1;SDS_P2;PMS_P1;PMS_P2;Temp;Humidity;BMP_temperature;BMP_pressure;BME280_temperature;BME280_humidity;BME280_pressure;Samples;Min_cycle;Max_cycle;Signal;HPM_P1;HPM_P2
2024/02/01 00:01:01;;;;;;;14.67;13.53;;;9.30;99.90;;;;;;5048284;28;20267;-78
2024/02/01 00:03:28;;;;;;;15.67;14.47;;;9.20;99.90;;;;;;5045764;28;20204;-78
2024/02/01 00:05:55;;;;;;;15.00;13.80;;;9.10;99.90;;;;;;5049887;28;20203;-77
2024/02/01 00:08:23;;;;;;;14.43;13.30;;;9.00;99.90;;;;;;5044481;28;20227;-77
2024/02/01 00:10:50;;;;;;;14.63;13.53;;;9.00;99.90;;;;;;5043483;28;20238;-78
2024/02/01 00:13:17;;;;;;;15.00;13.90;;;8.90;99.90;;;;;;5044198;28;20704;-78
2024/02/01 00:15:43;;;;;;;14.53;13.33;;;8.90;99.90;;;;;;5044230;28;20669;-78
2024/02/01 00:18:10;;;;;;;14.77;13.63;;;8.80;99.90;;;;;;5046000;28;20211;-78
2024/02/01 00:20:38;;;;;;;15.03;13.83;;;8.80;99.90;;;;;;5032824;28;20212;-78
2024/02/01 00:23:05;;;;;;;13.90;12.90;;;8.70;99.90;;;;;;5046297;28;20195;-78
2024/02/01 00:25:33;;;;;;;13.90;12.80;;;8.70;99.90;;;;;;5037211;28;20241;-78
2024/02/01 00:28:00;;;;;;;14.27;13.07;;;8.70;99.90;;;;;;5044758;28;20199;-78
2024/02/01 00:30:27;;;;;;;14.97;13.67;;;8.70;99.90;;;;;;5036852;28;20215;-77
2024/02/01 00:32:54;;;;;;;15.30;13.77;;;8.70;99.90;;;;;;5044605;28;20199;-78
2024/02/01 00:35:21;;;;;;;15.13;14.03;;;8.70;99.90;;;;;;5045108;28;20257;-78
2024/02/01 00:37:48;;;;;;;14.13;13.13;;;8.70;99.90;;;;;;5044600;28;20329;-78
2024/02/01 00:40:15;;;;;;;14.50;13.30;;;8.70;99.90;;;;;;5042865;28;20227;-78
2024/02/01 00:42:43;;;;;;;14.43;13.33;;;8.80;99.90;;;;;;5034822;28;20195;-77
2024/02/01 00:45:10;;;;;;;14.73;13.47;;;8.80;99.90;;;;;;5047005;28;20234;-78
2024/02/01 00:47:37;;;;;;;14.33;13.13;;;8.80;99.90;;;;;;5042937;28;20557;-78
2024/02/01 00:50:04;;;;;;;13.97;12.87;;;8.80;99.90;;;;;;5047614;28;20282;-78
2024/02/01 00:52:31;;;;;;;14.77;13.47;;;8.80;99.90;;;;;;5044619;28;20207;-77
2024/02/01 00:54:57;;;;;;;14.00;12.87;;;8.80;99.90;;;;;;5048767;28;20207;-78
2024/02/01 00:57:24;;;;;;;13.97;12.90;;;8.80;99.90;;;;;;5044383;28;20210;-78
2024/02/01 00:59:52;;;;;;;14.83;13.40;;;8.90;99.90;;;;;;5037546;28;20269;-78
2024/02/01 01:02:19;;;;;;;15.40;13.90;;;8.90;99.90;;;;;;5041810;28;20733;-77
2024/02/01 01:04:46;;;;;;;14.47;13.37;;;8.90;99.90;;;;;;5042636;28;20227;-78
2024/02/01 01:07:12;;;;;;;15.13;13.80;;;8.90;99.90;;;;;;5051478;28;20564;-78
2024/02/01 01:09:39;;;;;;;14.93;13.73;;;8.90;99.90;;;;;;5044353;28;20268;-78
2024/02/01 01:12:07;;;;;;;13.97;12.87;;;9.00;99.90;;;;;;5046094;28;20192;-78
2024/02/01 01:14:33;;;;;;;14.60;13.50;;;8.90;99.90;;;;;;5039030;28;20256;-78
2024/02/01 01:17:02;;;;;;;15.03;13.73;;;8.90;99.90;;;;;;5036233;28;20200;-77
2024/02/01 01:19:28;;;;;;;14.90;13.87;;;8.90;99.90;;;;;;5046876;28;20644;-78
2024/02/01 01:21:58;;;;;;;14.73;13.67;;;8.90;99.90;;;;;;5041485;28;20251;-78
2024/02/01 01:24:25;;;;;;;14.70;13.70;;;8.90;99.90;;;;;;5048336;28;20681;-77
2024/02/01 01:26:52;;;;;;;14.67;13.53;;;8.80;99.90;;;;;;5046564;28;20218;-78
2024/02/01 01:29:19;;;;;;;15.10;13.97;;;8.80;99.90;;;;;;5044643;28;20219;-77
2024/02/01 01:31:46;;;;;;;14.10;13.00;;;8.70;99.90;;;;;;5047064;28;20223;-78
2024/02/01 01:34:14;;;;;;;13.93;12.83;;;8.70;99.90;;;;;;5033656;28;20687;-78
2024/02/01 01:36:41;;;;;;;13.27;12.23;;;8.60;99.90;;;;;;5054376;28;20249;-77
2024/02/01 01:39:09;;;;;;;13.80;12.80;;;8.60;99.90;;;;;;5045382;28;20591;-78
2024/02/01 01:41:36;;;;;;;13.90;12.80;;;8.60;99.90;;;;;;5051179;28;20629;-77
2024/02/01 01:44:03;;;;;;;13.90;12.80;;;8.50;99.90;;;;;;5046726;28;20622;-78
2024/02/01 01:46:31;;;;;;;13.60;12.53;;;8.50;99.90;;;;;;5044272;28;20246;-77
2024/02/01 01:48:58;;;;;;;13.70;12.77;;;8.50;99.90;;;;;;5051692;28;20298;-78
2024/02/01 01:51:27;;;;;;;15.00;13.80;;;8.50;99.90;;;;;;5044636;28;20192;-78
2024/02/01 01:53:56;;;;;;;14.20;13.23;;;8.50;99.90;;;;;;5053789;28;20199;-78
2024/02/01 01:56:23;;;;;;;13.57;12.67;;;8.50;99.90;;;;;;5034097;28;20263;-77
2024/02/01 01:58:51;;;;;;;13.90;12.80;;;8.50;99.90;;;;;;5053951;28;20251;-78
2024/02/01 02:01:19;;;;;;;13.40;12.50;;;8.50;99.90;;;;;;5047529;28;20208;-78
2024/02/01 02:03:48;;;;;;;13.80;12.80;;;8.60;99.90;;;;;;5030823;28;20194;-78
2024/02/01 02:06:15;;;;;;;13.03;12.13;;;8.60;99.90;;;;;;5043851;28;20273;-77
2024/02/01 02:08:43;;;;;;;13.30;12.30;;;8.60;99.90;;;;;;5049576;28;20215;-78
2024/02/01 02:11:11;;;;;;;13.47;12.57;;;8.60;99.90;;;;;;5047178;28;20222;-78
2024/02/01 02:13:37;;;;;;;14.43;13.23;;;8.60;99.90;;;;;;5047488;28;20219;-78
2024/02/01 02:16:05;;;;;;;13.50;12.40;;;8.60;99.90;;;;;;5054227;28;20199;-78
2024/02/01 02:18:31;;;;;;;13.10;12.10;;;8.60;99.90;;;;;;5047065;28;20250;-78
2024/02/01 02:21:01;;;;;;;13.00;12.00;;;8.60;99.90;;;;;;5046983;28;20215;-78
2024/02/01 02:23:30;;;;;;;13.60;12.60;;;8.70;99.90;;;;;;5043491;28;20237;-78
2024/02/01 02:25:57;;;;;;;12.80;11.90;;;8.70;99.90;;;;;;5033406;28;20583;-78
2024/02/01 02:28:23;;;;;;;13.70;12.60;;;8.70;99.90;;;;;;5041569;28;20285;-78
2024/02/01 02:30:50;;;;;;;13.10;12.13;;;8.70;99.90;;;;;;5046426;28;20206;-78
2024/02/01 02:33:17;;;;;;;13.47;12.50;;;8.70;99.90;;;;;;5040888;28;20608;-78
2024/02/01 02:35:44;;;;;;;12.87;11.97;;;8.60;99.90;;;;;;5044554;28;20210;-78
2024/02/01 02:38:11;;;;;;;12.73;11.90;;;8.60;99.90;;;;;;5050637;28;20427;-78
2024/02/01 02:40:39;;;;;;;12.63;11.73;;;8.60;99.90;;;;;;5046916;28;20262;-78
2024/02/01 02:43:05;;;;;;;12.30;11.40;;;8.60;99.90;;;;;;5045686;28;20570;-78
2024/02/01 02:45:32;;;;;;;12.60;11.70;;;8.50;99.90;;;;;;5046659;28;20222;-78
2024/02/01 02:47:59;;;;;;;12.93;11.83;;;8.50;99.90;;;;;;5047822;28;20251;-78
2024/02/01 02:50:26;;;;;;;12.53;11.73;;;8.50;99.90;;;;;;5048341;28;20266;-77
2024/02/01 02:52:53;;;;;;;13.87;12.60;;;8.50;99.90;;;;;;5038445;28;20256;-78
2024/02/01 02:55:20;;;;;;;12.90;12.00;;;8.50;99.90;;;;;;5049504;28;20212;-78
2024/02/01 02:57:48;;;;;;;12.97;12.00;;;8.50;99.90;;;;;;5041392;28;20246;-78
2024/02/01 03:00:18;;;;;;;13.63;12.43;;;8.50;99.90;;;;;;5045926;28;20227;-77
2024/02/01 03:02:47;;;;;;;12.53;11.67;;;8.50;99.90;;;;;;5045066;28;20223;-78
2024/02/01 03:05:16;;;;;;;12.60;11.60;;;8.50;99.90;;;;;;5044546;28;20274;-77
2024/02/01 03:07:42;;;;;;;12.33;11.53;;;8.50;99.90;;;;;;5039864;28;20605;-78
2024/02/01 03:10:10;;;;;;;12.63;11.83;;;8.60;99.90;;;;;;5046168;28;20219;-77
2024/02/01 03:12:40;;;;;;;12.20;11.37;;;8.60;99.90;;;;;;5046186;28;20226;-77
2024/02/01 03:15:09;;;;;;;12.90;11.80;;;8.50;99.90;;;;;;5039365;28;20199;-78
2024/02/01 03:17:37;;;;;;;12.07;11.27;;;8.60;99.90;;;;;;5044984;28;20632;-77
2024/02/01 03:20:17;;;;;;;12.27;11.37;;;8.50;99.90;;;;;;5045321;28;20223;-78
2024/02/01 03:22:45;;;;;;;13.03;12.03;;;8.50;99.90;;;;;;5048803;28;20230;-78
2024/02/01 03:25:11;;;;;;;12.80;11.90;;;8.50;99.90;;;;;;5042476;28;20203;-78
2024/02/01 03:27:42;;;;;;;12.80;12.00;;;8.50;99.90;;;;;;5035091;28;20275;-78
2024/02/01 03:30:12;;;;;;;13.03;12.13;;;8.40;99.90;;;;;;5044970;28;20710;-78
2024/02/01 03:32:40;;;;;;;13.30;12.30;;;8.50;99.90;;;;;;5045669;28;20192;-78
2024/02/01 03:35:07;;;;;;;12.80;11.90;;;8.50;99.90;;;;;;5043907;28;20199;-78
2024/02/01 03:37:34;;;;;;;13.67;12.67;;;8.40;99.90;;;;;;5036250;28;20204;-78
2024/02/01 03:40:01;;;;;;;13.83;12.87;;;8.40;99.90;;;;;;5045342;28;20398;-78
2024/02/01 03:42:28;;;;;;;13.53;12.60;;;8.40;99.90;;;;;;5043078;28;20208;-77
2024/02/01 03:44:55;;;;;;;13.70;12.40;;;8.40;99.90;;;;;;5037970;28;20226;-77
2024/02/01 03:47:23;;;;;;;13.37;12.27;;;8.50;99.90;;;;;;5049585;28;20238;-77
2024/02/01 03:49:50;;;;;;;13.47;12.53;;;8.50;99.90;;;;;;5046493;28;20227;-78
2024/02/01 03:52:21;;;;;;;13.63;12.63;;;8.50;99.90;;;;;;5050504;28;20215;-81
2024/02/01 03:54:53;;;;;;;13.07;12.07;;;8.50;99.90;;;;;;5037160;28;20644;-80
2024/02/01 03:57:20;;;;;;;13.40;12.50;;;8.50;99.90;;;;;;5016083;28;20691;-79
2024/02/01 03:59:47;;;;;;;13.47;12.53;;;8.50;99.90;;;;;;5044778;28;20212;-79
2024/02/01 04:02:14;;;;;;;14.00;12.90;;;8.50;99.90;;;;;;5030289;28;20238;-79
2024/02/01 04:04:45;;;;;;;13.80;12.70;;;8.40;99.90;;;;;;5031499;28;20235;-79
2024/02/01 04:07:16;;;;;;;13.50;12.53;;;8.40;99.90;;;;;;5025162;28;20221;-79
2024/02/01 04:09:43;;;;;;;14.40;13.17;;;8.50;99.90;;;;;;5029942;28;20318;-79
2024/02/01 04:12:11;;;;;;;13.83;12.83;;;8.40;99.90;;;;;;5023155;28;20245;-79
2024/02/01 04:14:38;;;;;;;13.10;12.20;;;8.50;99.90;;;;;;5026438;28;20625;-79
2024/02/01 04:17:06;;;;;;;12.93;12.03;;;8.40;99.90;;;;;;5035879;28;20207;-78
2024/02/01 04:19:32;;;;;;;13.00;12.10;;;8.50;99.90;;;;;;5023901;28;20224;-78
2024/02/01 04:22:01;;;;;;;13.40;12.40;;;8.40;99.90;;;;;;5022906;28;20208;-78
2024/02/01 04:24:28;;;;;;;12.50;11.70;;;8.40;99.90;;;;;;5036460;28;20681;-78
2024/02/01 04:26:55;;;;;;;13.40;12.50;;;8.40;99.90;;;;;;5041354;28;20737;-78
2024/02/01 04:29:22;;;;;;;13.53;12.63;;;8.50;99.90;;;;;;5042068;28;20318;-79
2024/02/01 04:31:49;;;;;;;14.03;13.13;;;8.40;99.90;;;;;;5037175;28;20243;-78
2024/02/01 04:34:16;;;;;;;13.17;12.27;;;8.50;99.90;;;;;;5043932;28;20223;-77
2024/02/01 04:36:42;;;;;;;14.47;13.17;;;8.50;99.90;;;;;;5039147;28;20200;-78
2024/02/01 04:39:11;;;;;;;13.20;12.40;;;8.50;99.90;;;;;;5039326;28;20771;-77
2024/02/01 04:41:40;;;;;;;13.40;12.37;;;8.50;99.90;;;;;;5043229;28;20246;-77
2024/02/01 04:44:10;;;;;;;12.97;12.07;;;8.50;99.90;;;;;;5049745;28;20733;-77
2024/02/01 04:46:36;;;;;;;13.00;12.10;;;8.60;99.90;;;;;;5043737;28;20206;-77
2024/02/01 04:49:11;;;;;;;13.03;12.00;;;8.60;99.90;;;;;;5035739;28;20246;-77
2024/02/01 04:51:39;;;;;;;12.30;11.50;;;8.60;99.90;;;;;;5035413;28;20200;-77
2024/02/01 04:54:06;;;;;;;11.93;11.13;;;8.60;99.90;;;;;;5035275;28;20192;-77
2024/02/01 04:56:36;;;;;;;12.60;11.70;;;8.60;99.90;;;;;;5045081;28;20268;-77
2024/02/01 04:59:03;;;;;;;12.83;11.80;;;8.70;99.90;;;;;;5037194;28;20297;-77
2024/02/01 05:01:31;;;;;;;12.37;11.57;;;8.70;99.90;;;;;;5044044;28;20238;-77
2024/02/01 05:03:58;;;;;;;13.07;12.07;;;8.70;99.90;;;;;;5051013;28;20207;-77
2024/02/01 05:06:25;;;;;;;14.10;13.00;;;8.70;99.90;;;;;;5044235;28;20192;-77
2024/02/01 05:08:53;;;;;;;13.47;12.53;;;8.70;99.90;;;;;;5053023;28;20219;-77
2024/02/01 05:11:19;;;;;;;13.13;12.20;;;8.70;99.90;;;;;;5047192;28;20236;-77
2024/02/01 05:13:47;;;;;;;12.60;11.80;;;8.80;99.90;;;;;;5052331;28;20184;-77
2024/02/01 05:16:14;;;;;;;13.20;12.23;;;8.70;99.90;;;;;;5040623;28;21256;-77
2024/02/01 05:18:41;;;;;;;13.03;12.23;;;8.80;99.90;;;;;;5041702;28;20273;-77
2024/02/01 05:21:08;;;;;;;13.30;12.30;;;8.70;99.90;;;;;;5041798;28;20625;-77
2024/02/01 05:23:35;;;;;;;13.10;12.20;;;8.80;99.90;;;;;;5033835;28;20687;-76
2024/02/01 05:26:01;;;;;;;14.00;13.00;;;8.80;99.90;;;;;;5049010;28;20199;-77
2024/02/01 05:28:28;;;;;;;14.73;13.33;;;8.80;99.90;;;;;;5034450;28;20215;-77
2024/02/01 05:30:57;;;;;;;13.70;12.80;;;8.70;99.90;;;;;;5046234;28;20261;-77
2024/02/01 05:33:24;;;;;;;13.17;12.27;;;8.70;99.90;;;;;;5032461;28;20219;-77
2024/02/01 05:35:51;;;;;;;13.43;12.53;;;8.70;99.90;;;;;;5045011;28;20199;-77
2024/02/01 05:38:17;;;;;;;13.23;12.33;;;8.70;99.90;;;;;;5048730;28;20238;-77
2024/02/01 05:40:44;;;;;;;13.27;12.37;;;8.70;99.90;;;;;;5047929;28;20669;-77
2024/02/01 05:43:12;;;;;;;13.03;12.20;;;8.70;99.90;;;;;;5042851;28;20263;-77
2024/02/01 05:45:39;;;;;;;14.07;13.10;;;8.70;99.90;;;;;;5048043;28;20191;-77
2024/02/01 05:48:11;;;;;;;13.17;12.17;;;8.70;99.90;;;;;;5033078;28;20288;-77
2024/02/01 05:50:39;;;;;;;12.97;12.07;;;8.70;99.90;;;;;;5048330;28;20195;-77
2024/02/01 05:53:09;;;;;;;13.70;12.60;;;8.70;99.90;;;;;;5041309;28;20245;-77
2024/02/01 05:55:36;;;;;;;13.33;12.40;;;8.70;99.90;;;;;;5039441;28;20295;-77
2024/02/01 05:58:05;;;;;;;13.50;12.60;;;8.70;99.90;;;;;;5050291;28;20249;-77
2024/02/01 06:00:32;;;;;;;13.80;12.80;;;8.70;99.90;;;;;;5041287;28;20650;-77
2024/02/01 06:02:59;;;;;;;13.80;12.70;;;8.70;99.90;;;;;;5046534;28;20755;-77
2024/02/01 06:05:27;;;;;;;13.00;12.00;;;8.70;99.90;;;;;;5046056;28;20688;-77
2024/02/01 06:07:54;;;;;;;13.37;12.47;;;8.60;99.90;;;;;;5045989;28;20594;-77
2024/02/01 06:10:20;;;;;;;14.03;12.93;;;8.60;99.90;;;;;;5046206;28;20249;-77
2024/02/01 06:12:47;;;;;;;14.40;13.17;;;8.60;99.90;;;;;;5047761;28;20593;-77
2024/02/01 06:15:14;;;;;;;13.87;12.77;;;8.60;99.90;;;;;;5050915;28;20223;-77
2024/02/01 06:17:41;;;;;;;14.37;13.03;;;8.60;99.90;;;;;;5048369;28;20195;-77
2024/02/01 06:20:10;;;;;;;13.37;12.47;;;8.60;99.90;;;;;;5037239;28;20272;-77
2024/02/01 06:22:39;;;;;;;13.73;12.77;;;8.60;99.90;;;;;;5047540;28;20694;-77
2024/02/01 06:25:11;;;;;;;14.37;13.27;;;8.60;99.90;;;;;;5043816;28;20265;-77
2024/02/01 06:27:38;;;;;;;13.40;12.30;;;8.60;99.90;;;;;;5047817;28;20204;-77
2024/02/01 06:30:10;;;;;;;13.60;12.50;;;8.60;99.90;;;;;;5045945;28;20223;-77
2024/02/01 06:32:37;;;;;;;14.40;13.30;;;8.60;99.90;;;;;;5043738;28;20187;-77
2024/02/01 06:35:06;;;;;;;14.83;13.40;;;8.60;99.90;;;;;;5046203;28;20231;-77
2024/02/01 06:37:35;;;;;;;13.83;12.83;;;8.70;99.90;;;;;;5037952;28;20671;-77
2024/02/01 06:40:37;;;;;;;13.93;12.90;;;8.60;99.90;;;;;;5049693;28;20782;-77
2024/02/01 06:43:11;;;;;;;14.27;13.07;;;8.60;99.90;;;;;;5044952;28;21515;-77
2024/02/01 06:45:45;;;;;;;14.57;13.37;;;8.70;99.90;;;;;;5048359;28;20200;-77
2024/02/01 06:48:12;;;;;;;13.57;12.57;;;8.70;99.90;;;;;;5043738;28;20255;-77
2024/02/01 06:50:57;;;;;;;14.90;13.60;;;8.60;99.90;;;;;;5046182;28;20195;-77
2024/02/01 06:53:33;;;;;;;14.53;13.43;;;8.60;99.90;;;;;;5042883;28;20196;-77
2024/02/01 06:56:06;;;;;;;13.23;12.33;;;8.60;99.90;;;;;;5041431;28;20207;-77
2024/02/01 06:58:39;;;;;;;14.07;12.97;;;8.60;99.90;;;;;;5050783;28;20427;-77
2024/02/01 07:01:24;;;;;;;13.77;12.77;;;8.60;99.90;;;;;;5043637;28;20196;-77
2024/02/01 07:03:56;;;;;;;14.23;13.13;;;8.50;99.90;;;;;;5048163;28;20266;-77
2024/02/01 07:06:33;;;;;;;13.93;12.93;;;8.50;99.90;;;;;;5047665;28;20192;-77
2024/02/01 07:11:48;;;;;;;14.70;13.60;;;8.40;99.90;;;;;;5046861;28;20195;-77
2024/02/01 07:14:16;;;;;;;14.60;13.60;;;8.40;99.90;;;;;;5044617;28;20205;-77
2024/02/01 07:16:55;;;;;;;14.50;13.40;;;8.40;99.90;;;;;;5047942;28;20650;-77
2024/02/01 07:19:39;;;;;;;14.90;13.80;;;8.30;99.90;;;;;;5039577;28;20314;-77
2024/02/01 07:22:11;;;;;;;15.00;13.90;;;8.30;99.90;;;;;;5043875;28;20618;-78
2024/02/01 07:24:58;;;;;;;14.70;13.60;;;8.30;99.90;;;;;;5046536;28;20287;-78
2024/02/01 07:57:50;;;;;;;15.97;14.57;;;7.90;99.90;;;;;;5045593;28;20187;-77
2024/02/01 08:00:27;;;;;;;15.37;14.17;;;7.90;99.90;;;;;;5040581;28;20293;-77
2024/02/01 08:03:00;;;;;;;16.90;14.30;;;7.90;99.90;;;;;;5044463;28;20231;-77
2024/02/01 08:08:12;;;;;;;15.63;14.40;;;7.90;99.90;;;;;;5045065;28;20248;-77
2024/02/01 08:10:39;;;;;;;15.73;14.13;;;8.00;99.90;;;;;;5045159;28;20256;-77
2024/02/01 08:13:07;;;;;;;14.37;13.27;;;7.90;99.90;;;;;;5047635;28;20452;-77
2024/02/01 08:15:37;;;;;;;14.80;13.60;;;8.00;99.90;;;;;;5034384;28;20207;-77
2024/02/01 08:18:08;;;;;;;15.67;14.30;;;8.00;99.90;;;;;;5049280;28;20669;-77
2024/02/01 08:20:35;;;;;;;14.93;13.47;;;8.00;99.90;;;;;;5042631;28;20202;-80
2024/02/01 08:23:02;;;;;;;15.63;14.23;;;8.00;99.90;;;;;;5037800;28;20226;-77
2024/02/01 08:25:30;;;;;;;15.70;14.27;;;8.10;99.90;;;;;;5040038;28;20689;-77
2024/02/01 08:27:58;;;;;;;15.57;14.27;;;8.10;99.90;;;;;;5045562;28;20206;-77
2024/02/01 08:30:27;;;;;;;16.07;14.77;;;8.10;99.90;;;;;;5049345;28;20234;-77
2024/02/01 08:32:57;;;;;;;15.20;13.97;;;8.20;99.90;;;;;;5036560;28;20206;-77
2024/02/01 08:35:24;;;;;;;16.07;14.77;;;8.20;99.90;;;;;;5037704;28;20200;-77
2024/02/01 08:37:55;;;;;;;15.50;14.30;;;8.20;99.90;;;;;;5042046;28;20799;-77
2024/02/01 08:40:22;;;;;;;16.10;14.70;;;8.20;99.90;;;;;;5044410;28;20187;-77
2024/02/01 08:42:57;;;;;;;15.43;14.20;;;8.20;99.90;;;;;;5037519;28;20222;-77
2024/02/01 08:45:27;;;;;;;15.47;14.17;;;8.20;99.90;;;;;;5038950;28;20282;-77
2024/02/01 08:48:00;;;;;;;15.57;14.37;;;8.20;99.90;;;;;;5037748;28;20710;-77
2024/02/01 08:50:28;;;;;;;14.73;13.63;;;8.20;99.90;;;;;;5046111;28;20273;-77
2024/02/01 08:52:55;;;;;;;15.20;13.90;;;8.20;99.90;;;;;;5047351;28;20207;-77
2024/02/01 08:55:22;;;;;;;15.83;14.40;;;8.30;99.90;;;;;;5053613;28;20643;-77
2024/02/01 08:57:49;;;;;;;15.97;14.67;;;8.30;99.90;;;;;;5051163;28;20274;-77
2024/02/01 09:00:25;;;;;;;16.23;14.83;;;8.30;99.90;;;;;;5047375;28;20219;-77
2024/02/01 09:03:04;;;;;;;15.50;14.33;;;8.30;99.90;;;;;;5044313;28;20206;-77
2024/02/01 09:05:36;;;;;;;16.40;14.80;;;8.30;99.90;;;;;;5043328;28;20690;-77
2024/02/01 09:08:04;;;;;;;15.87;14.60;;;8.30;99.90;;;;;;5045812;28;20200;-77
2024/02/01 09:10:32;;;;;;;16.97;15.57;;;8.30;99.90;;;;;;5044197;28;20195;-77
2024/02/01 09:12:59;;;;;;;16.73;15.30;;;8.30;99.90;;;;;;5049727;28;20278;-77
2024/02/01 09:15:26;;;;;;;17.67;16.07;;;8.30;99.90;;;;;;5037633;28;20193;-77
2024/02/01 09:17:56;;;;;;;18.43;16.83;;;8.30;99.90;;;;;;5043711;28;20206;-77
2024/02/01 09:20:25;;;;;;;16.00;14.70;;;8.30;99.90;;;;;;5051323;28;20203;-77
2024/02/01 09:22:55;;;;;;;16.20;15.10;;;8.30;99.90;;;;;;5049994;28;20210;-77
2024/02/01 09:25:26;;;;;;;15.30;14.10;;;8.40;99.90;;;;;;5053476;28;20559;-77
2024/02/01 09:27:54;;;;;;;15.70;14.30;;;8.50;99.90;;;;;;5046325;28;20196;-79
2024/02/01 09:30:23;;;;;;;15.03;13.83;;;8.60;99.90;;;;;;5035873;28;20699;-79
2024/02/01 09:32:51;;;;;;;14.63;13.63;;;8.70;99.90;;;;;;5042238;28;20204;-77
2024/02/01 09:35:18;;;;;;;15.33;14.07;;;8.70;99.90;;;;;;5044663;28;20642;-77
2024/02/01 09:37:45;;;;;;;15.77;14.37;;;8.80;99.90;;;;;;5052434;28;20264;-77
2024/02/01 09:40:14;;;;;;;15.13;14.03;;;8.80;99.90;;;;;;5045296;28;20269;-77
2024/02/01 09:42:42;;;;;;;15.80;14.50;;;8.90;99.90;;;;;;5047412;28;20203;-77
2024/02/01 09:45:10;;;;;;;14.90;13.80;;;8.90;99.90;;;;;;5039334;28;20592;-77
2024/02/01 09:47:46;;;;;;;14.93;13.73;;;8.90;99.90;;;;;;5047014;28;20452;-77
2024/02/01 09:50:14;;;;;;;15.20;14.00;;;8.90;99.90;;;;;;5034149;28;20216;-78
2024/02/01 09:52:45;;;;;;;15.20;14.03;;;8.90;99.90;;;;;;5046915;28;20196;-77
2024/02/01 09:55:17;;;;;;;15.03;13.73;;;8.90;99.90;;;;;;5039950;28;20203;-77
2024/02/01 09:57:45;;;;;;;14.87;13.87;;;8.90;99.90;;;;;;5048122;28;20217;-79
2024/02/01 10:00:17;;;;;;;14.87;13.87;;;9.00;99.90;;;;;;5049538;28;20220;-77
2024/02/01 10:02:46;;;;;;;14.53;13.53;;;9.00;99.90;;;;;;5038692;28;20207;-78
2024/02/01 10:05:13;;;;;;;14.60;13.50;;;9.00;99.90;;;;;;5032135;28;20229;-77
2024/02/01 10:07:40;;;;;;;15.37;14.20;;;9.00;99.90;;;;;;5048381;28;20195;-78
2024/02/01 10:10:07;;;;;;;14.57;13.57;;;9.00;99.90;;;;;;5028100;28;20230;-77
2024/02/01 10:12:36;;;;;;;15.10;14.00;;;9.00;99.90;;;;;;5045394;28;20197;-77
2024/02/01 10:15:08;;;;;;;14.97;13.77;;;9.10;99.90;;;;;;5047547;28;20283;-78
2024/02/01 10:17:45;;;;;;;14.33;13.40;;;9.10;99.90;;;;;;5031955;28;20279;-77
2024/02/01 10:20:33;;;;;;;14.30;13.30;;;9.10;99.90;;;;;;5047508;28;20219;-77
2024/02/01 10:23:05;;;;;;;14.00;13.00;;;9.10;99.90;;;;;;5044386;28;20207;-77
2024/02/01 10:25:38;;;;;;;14.00;13.10;;;9.20;99.90;;;;;;5033099;28;20212;-77
2024/02/01 10:28:08;;;;;;;13.77;12.80;;;9.20;99.90;;;;;;5024802;28;20672;-77
2024/02/01 10:30:39;;;;;;;13.37;12.47;;;9.30;99.90;;;;;;5036998;28;20200;-77
2024/02/01 10:33:07;;;;;;;14.33;13.43;;;9.30;99.90;;;;;;5045489;28;20193;-78
2024/02/01 10:35:35;;;;;;;13.60;12.70;;;9.40;99.90;;;;;;5035975;28;20583;-77
2024/02/01 10:38:11;;;;;;;13.30;12.43;;;9.40;99.90;;;;;;5038743;28;20202;-77
2024/02/01 10:40:53;;;;;;;13.80;12.90;;;9.50;99.90;;;;;;5038588;28;20660;-77
2024/02/01 10:43:26;;;;;;;13.40;12.50;;;9.50;99.90;;;;;;5048133;28;20205;-77
2024/02/01 10:46:06;;;;;;;13.23;12.37;;;9.60;99.90;;;;;;5047222;28;20205;-78
2024/02/01 10:48:35;;;;;;;14.13;13.20;;;9.70;99.90;;;;;;5046191;28;20256;-77
2024/02/01 10:51:09;;;;;;;13.17;12.27;;;9.80;99.90;;;;;;5042860;28;20208;-80
2024/02/01 10:53:41;;;;;;;13.70;12.90;;;9.90;99.90;;;;;;5027519;28;20228;-80
2024/02/01 10:56:13;;;;;;;14.07;13.03;;;10.00;99.90;;;;;;5042636;28;20631;-80
2024/02/01 10:58:45;;;;;;;14.00;13.10;;;10.00;99.90;;;;;;5036664;28;20312;-79
2024/02/01 11:01:13;;;;;;;14.27;13.37;;;10.00;99.90;;;;;;5048179;28;20639;-77
2024/02/01 11:03:47;;;;;;;14.03;13.07;;;10.10;99.90;;;;;;5043903;28;20217;-78
2024/02/01 11:06:15;;;;;;;14.03;13.13;;;10.10;99.90;;;;;;5048067;28;20695;-77
2024/02/01 11:08:42;;;;;;;14.30;13.40;;;10.20;99.90;;;;;;5031847;28;20223;-77
2024/02/01 11:11:16;;;;;;;15.07;13.87;;;10.20;99.90;;;;;;5046026;28;20203;-77
2024/02/01 11:13:48;;;;;;;14.10;13.20;;;10.20;99.90;;;;;;5043159;28;20233;-78
2024/02/01 11:16:15;;;;;;;14.20;13.20;;;10.20;99.90;;;;;;5046496;28;20212;-77
2024/02/01 11:18:54;;;;;;;13.80;12.90;;;10.20;99.90;;;;;;5035061;28;20235;-79
2024/02/01 11:21:32;;;;;;;14.10;13.10;;;10.30;99.90;;;;;;5050271;28;20205;-79
2024/02/01 11:24:06;;;;;;;14.00;13.00;;;10.30;99.90;;;;;;5034897;28;20242;-78
2024/02/01 11:26:39;;;;;;;13.83;12.93;;;10.30;99.90;;;;;;5044252;28;20289;-79
2024/02/01 11:29:09;;;;;;;13.57;12.67;;;10.30;99.90;;;;;;5029276;28;20219;-78
2024/02/01 11:31:37;;;;;;;13.13;12.33;;;10.30;99.90;;;;;;5039659;28;20293;-79
2024/02/01 11:34:06;;;;;;;13.53;12.63;;;10.30;99.90;;;;;;5038987;28;20558;-79
2024/02/01 11:36:34;;;;;;;12.83;12.03;;;10.30;99.90;;;;;;5047168;28;20566;-78
2024/02/01 11:39:02;;;;;;;12.63;11.83;;;10.20;99.90;;;;;;5040282;28;20247;-79
2024/02/01 11:41:30;;;;;;;13.27;12.37;;;10.30;99.90;;;;;;5040063;28;20242;-78
2024/02/01 11:43:58;;;;;;;12.97;12.17;;;10.30;99.90;;;;;;5032216;28;20797;-78
2024/02/01 11:46:27;;;;;;;12.90;12.10;;;10.40;99.90;;;;;;5031536;28;20214;-78
2024/02/01 11:48:54;;;;;;;13.40;12.60;;;10.40;99.90;;;;;;5046468;28;20249;-79
2024/02/01 11:51:21;;;;;;;13.53;12.73;;;10.50;99.90;;;;;;5042920;28;20214;-78
2024/02/01 11:53:51;;;;;;;13.17;12.30;;;10.60;99.90;;;;;;5048987;28;20226;-78
2024/02/01 11:56:19;;;;;;;13.70;12.80;;;10.70;99.90;;;;;;5045397;28;20797;-78
2024/02/01 11:58:48;;;;;;;13.00;12.20;;;10.80;99.90;;;;;;5042652;28;20206;-78
2024/02/01 12:01:15;;;;;;;13.20;12.40;;;10.80;99.90;;;;;;5047271;28;20226;-79
2024/02/01 12:03:49;;;;;;;13.07;12.27;;;10.90;99.90;;;;;;5037750;28;20206;-78
2024/02/01 12:06:19;;;;;;;12.53;11.73;;;11.00;99.90;;;;;;5044576;28;20186;-78
2024/02/01 12:08:46;;;;;;;12.50;11.70;;;11.00;99.90;;;;;;5043181;28;20265;-78
2024/02/01 12:11:14;;;;;;;12.37;11.67;;;11.00;99.90;;;;;;5048692;28;20406;-78
2024/02/01 12:13:46;;;;;;;12.43;11.73;;;11.00;99.90;;;;;;5038563;28;20202;-78
2024/02/01 12:16:22;;;;;;;12.80;11.90;;;10.90;99.90;;;;;;5045396;28;20243;-79
2024/02/01 12:18:51;;;;;;;12.20;11.50;;;10.80;99.90;;;;;;5042384;28;20223;-79
2024/02/01 12:21:26;;;;;;;11.70;11.00;;;10.80;99.90;;;;;;5045104;28;20234;-79
2024/02/01 12:23:56;;;;;;;11.53;10.83;;;10.80;99.90;;;;;;5042966;28;20200;-78
2024/02/01 12:26:25;;;;;;;12.30;11.50;;;10.80;99.90;;;;;;5041545;28;20210;-78
2024/02/01 12:28:52;;;;;;;11.67;10.97;;;10.80;99.90;;;;;;5042928;28;20215;-78
2024/02/01 12:31:19;;;;;;;12.00;11.23;;;10.70;99.90;;;;;;5040566;28;20200;-78
2024/02/01 12:33:46;;;;;;;11.97;11.27;;;10.70;99.90;;;;;;5038069;28;20204;-79
2024/02/01 12:36:14;;;;;;;11.47;10.87;;;10.80;99.90;;;;;;5045109;28;20195;-78
2024/02/01 12:38:44;;;;;;;11.60;10.90;;;10.90;99.90;;;;;;5043150;28;20234;-78
2024/02/01 12:41:11;;;;;;;11.70;11.00;;;10.90;99.90;;;;;;5037123;28;20227;-78
2024/02/01 12:43:38;;;;;;;11.00;10.30;;;11.00;99.90;;;;;;5045629;28;20227;-78
2024/02/01 12:46:05;;;;;;;10.90;10.20;;;11.00;99.90;;;;;;5038456;28;20293;-79
2024/02/01 12:48:32;;;;;;;11.50;10.70;;;11.00;99.90;;;;;;5045168;28;20278;-78
2024/02/01 12:50:59;;;;;;;10.70;10.10;;;11.00;99.90;;;;;;5038812;28;20200;-78
2024/02/01 12:53:27;;;;;;;10.97;10.30;;;11.00;99.90;;;;;;5044546;28;20722;-78
2024/02/01 12:55:54;;;;;;;11.00;10.30;;;10.90;99.90;;;;;;5042292;28;20730;-78
2024/02/01 12:58:21;;;;;;;11.10;10.40;;;10.90;99.90;;;;;;5044792;28;20280;-78
2024/02/01 13:00:48;;;;;;;10.50;9.90;;;10.90;99.90;;;;;;5044919;28;20195;-79
2024/02/01 13:03:15;;;;;;;10.40;9.80;;;10.90;99.90;;;;;;5042233;28;20195;-78
2024/02/01 13:05:44;;;;;;;10.33;9.70;;;10.90;99.90;;;;;;5049363;28;20272;-78
2024/02/01 13:08:14;;;;;;;10.30;9.70;;;10.90;99.90;;;;;;5042999;28;20208;-78
2024/02/01 13:10:44;;;;;;;10.40;9.70;;;10.90;99.90;;;;;;5051398;28;20199;-78
2024/02/01 13:13:11;;;;;;;10.80;9.90;;;11.00;99.90;;;;;;5036689;28;20204;-78
2024/02/01 13:15:38;;;;;;;10.67;9.97;;;11.00;99.90;;;;;;5049868;28;20234;-78
2024/02/01 13:18:11;;;;;;;11.70;11.00;;;11.00;99.90;;;;;;5045556;28;20250;-78
2024/02/01 13:20:38;;;;;;;12.37;11.57;;;10.90;99.90;;;;;;5052161;28;20288;-78